createdAt,value
2018-11-03T05:02:02.584Z,99.90
2018-11-03T05:04:30.737Z,99.90
2018-11-03T05:06:58.901Z,99.90
2018-11-03T05:09:27.049Z,99.90
2018-11-03T05:11:55.237Z,99.90
2018-11-03T05:14:23.386Z,99.90
2018-11-03T05:16:51.561Z,99.90
2018-11-03T05:19:19.711Z,99.90
2018-11-03T05:21:47.878Z,99.90
2018-11-03T05:24:16.033Z,99.90
2018-11-03T05:26:44.194Z,99.90
2018-11-03T05:29:12.368Z,99.90
2018-11-03T05:31:40.524Z,99.90
2018-11-03T05:34:08.896Z,99.90
2018-11-03T05:36:37.070Z,99.90
2018-11-03T05:39:07.942Z,99.90
2018-11-03T05:41:36.062Z,99.90
2018-11-03T05:44:04.209Z,99.90
2018-11-03T05:46:32.497Z,99.90
2018-11-03T05:49:00.545Z,99.90
2018-11-03T05:51:28.692Z,99.90
2018-11-03T05:53:56.834Z,99.90
2018-11-03T05:56:25.030Z,99.90
2018-11-03T05:58:53.312Z,99.90
2018-11-03T06:01:21.592Z,99.90
2018-11-03T06:03:49.738Z,99.90
2018-11-03T06:06:17.924Z,99.90
2018-11-03T06:08:46.332Z,99.90
2018-11-03T06:11:14.914Z,99.90
2018-11-03T06:13:43.373Z,99.90
2018-11-03T06:16:11.615Z,99.90
2018-11-03T06:18:39.797Z,99.90
2018-11-03T06:21:09.656Z,99.90
2018-11-03T06:23:38.043Z,99.90
2018-11-03T06:26:06.914Z,99.90
2018-11-03T06:28:35.161Z,99.90
2018-11-03T06:31:04.124Z,99.90
2018-11-03T06:33:32.381Z,99.90
2018-11-03T06:36:00.558Z,99.90
2018-11-03T06:38:28.758Z,99.90
2018-11-03T06:40:56.966Z,99.90
2018-11-03T06:43:25.160Z,99.90
2018-11-03T06:45:53.333Z,99.90
2018-11-03T06:48:21.523Z,99.90
2018-11-03T06:50:49.795Z,99.90
2018-11-03T06:53:17.947Z,99.90
2018-11-03T06:55:46.192Z,99.90
2018-11-03T06:58:14.364Z,99.90
2018-11-03T07:00:42.542Z,99.90
2018-11-03T07:03:14.118Z,99.90
2018-11-03T07:05:42.309Z,99.90
2018-11-03T07:08:11.189Z,99.90
2018-11-03T07:10:44.008Z,99.90
2018-11-03T07:13:19.045Z,99.90
2018-11-03T07:15:47.213Z,99.90
2018-11-03T07:18:15.418Z,99.90
2018-11-03T07:20:43.622Z,99.90
2018-11-03T07:23:11.781Z,99.90
2018-11-03T07:25:39.939Z,99.90
2018-11-03T07:28:08.102Z,99.90
2018-11-03T07:30:36.337Z,99.90
2018-11-03T07:33:04.567Z,99.90
2018-11-03T07:35:32.729Z,99.90
2018-11-03T07:38:00.901Z,99.90
2018-11-03T07:40:29.070Z,99.90
2018-11-03T07:42:57.217Z,99.90
2018-11-03T07:45:25.371Z,99.90
2018-11-03T07:47:53.646Z,99.90
2018-11-03T07:50:21.799Z,99.90
2018-11-03T07:52:49.969Z,99.90
2018-11-03T07:55:18.162Z,99.90
2018-11-03T07:57:46.327Z,99.90
2018-11-03T08:00:14.499Z,99.90
2018-11-03T08:02:42.683Z,99.90
2018-11-03T08:05:11.833Z,99.90
2018-11-03T08:07:40.061Z,99.90
2018-11-03T08:10:09.513Z,99.90
2018-11-03T08:12:37.752Z,99.90
2018-11-03T08:15:06.827Z,99.90
2018-11-03T08:17:34.988Z,99.90
2018-11-03T08:20:03.158Z,99.90
2018-11-03T08:22:31.321Z,99.90
2018-11-03T08:24:59.499Z,99.90
2018-11-03T08:27:27.797Z,99.90
2018-11-03T08:29:55.994Z,99.90
2018-11-03T08:32:24.185Z,99.90
2018-11-03T08:34:52.391Z,99.90
2018-11-03T08:37:20.553Z,99.90
2018-11-03T08:39:48.885Z,99.90
2018-11-03T08:42:16.924Z,99.90
2018-11-03T08:44:45.095Z,99.90
2018-11-03T08:47:13.277Z,99.90
2018-11-03T08:49:41.455Z,99.90
2018-11-03T08:52:09.605Z,99.60
2018-11-03T08:54:37.782Z,99.70
2018-11-03T08:57:05.934Z,99.30
2018-11-03T08:59:34.209Z,99.30
2018-11-03T09:02:02.280Z,99.30
2018-11-03T09:04:30.465Z,99.40
2018-11-03T09:06:58.629Z,99.60
2018-11-03T09:09:26.859Z,99.80
2018-11-03T09:12:01.690Z,99.70
2018-11-03T09:14:29.883Z,99.50
2018-11-03T09:16:58.037Z,99.50
2018-11-03T09:19:26.209Z,99.10
2018-11-03T09:21:54.432Z,99.20
2018-11-03T09:24:22.655Z,99.20
2018-11-03T09:26:50.784Z,99.00
2018-11-03T09:29:18.940Z,98.90
2018-11-03T09:31:47.166Z,99.10
2018-11-03T09:34:15.306Z,99.30
2018-11-03T09:36:43.487Z,99.30
2018-11-03T09:39:11.758Z,99.30
2018-11-03T09:41:40.213Z,99.40
2018-11-03T09:44:08.372Z,99.10
2018-11-03T09:46:36.545Z,99.10
2018-11-03T09:49:05.265Z,99.10
2018-11-03T09:51:33.437Z,99.40
2018-11-03T09:54:01.927Z,99.50
2018-11-03T09:56:30.157Z,99.40
2018-11-03T09:58:58.369Z,99.10
2018-11-03T10:01:26.550Z,99.60
2018-11-03T10:03:54.705Z,99.10
2018-11-03T10:06:22.943Z,99.20
2018-11-03T10:08:51.069Z,99.60
2018-11-03T10:11:19.234Z,99.10
2018-11-03T10:13:47.409Z,99.30
2018-11-03T10:16:15.772Z,99.00
2018-11-03T10:18:43.941Z,98.80
2018-11-03T10:21:12.147Z,99.00
2018-11-03T10:23:40.269Z,99.00
2018-11-03T10:26:08.510Z,99.20
2018-11-03T10:28:36.665Z,98.80
2018-11-03T10:31:04.951Z,98.30
2018-11-03T10:33:33.125Z,98.30
2018-11-03T10:36:01.289Z,98.50
2018-11-03T10:38:29.458Z,98.40
2018-11-03T10:40:57.646Z,98.30
2018-11-03T10:43:25.863Z,98.20
2018-11-03T10:45:54.024Z,99.10
2018-11-03T10:48:22.201Z,99.10
2018-11-03T10:50:50.370Z,99.00
2018-11-03T10:53:18.528Z,98.90
2018-11-03T10:55:46.686Z,99.20
2018-11-03T10:58:14.841Z,99.30
2018-11-03T11:00:48.447Z,99.00
2018-11-03T11:03:22.166Z,99.20
2018-11-03T11:05:55.809Z,99.20
2018-11-03T11:08:29.691Z,98.90
2018-11-03T11:11:03.510Z,98.80
2018-11-03T11:13:33.298Z,98.80
2018-11-03T11:16:01.555Z,99.20
2018-11-03T11:18:29.700Z,99.20
2018-11-03T11:20:57.888Z,98.90
2018-11-03T11:23:26.113Z,98.90
2018-11-03T11:25:54.326Z,99.10
2018-11-03T11:28:22.546Z,99.20
2018-11-03T11:30:50.805Z,99.40
2018-11-03T11:33:19.164Z,99.50
2018-11-03T11:35:47.324Z,99.80
2018-11-03T11:38:15.820Z,99.70
2018-11-03T11:40:44.337Z,99.50
2018-11-03T11:43:14.558Z,99.50
2018-11-03T11:45:42.615Z,99.30
2018-11-03T11:48:11.017Z,99.40
2018-11-03T11:50:39.658Z,99.40
2018-11-03T11:53:08.038Z,99.30
2018-11-03T11:55:37.497Z,99.10
2018-11-03T11:58:06.854Z,99.20
2018-11-03T12:00:35.168Z,99.50
2018-11-03T12:03:03.294Z,99.20
2018-11-03T12:05:31.469Z,98.90
2018-11-03T12:07:59.794Z,98.90
2018-11-03T12:10:28.020Z,98.80
2018-11-03T12:12:56.196Z,99.10
2018-11-03T12:15:24.675Z,99.30
2018-11-03T12:17:52.893Z,99.20
2018-11-03T12:20:21.049Z,99.00
2018-11-03T12:22:49.249Z,98.90
2018-11-03T12:25:17.448Z,98.90
2018-11-03T12:27:45.674Z,98.60
2018-11-03T12:30:15.030Z,98.70
2018-11-03T12:32:43.232Z,98.90
2018-11-03T12:35:11.687Z,98.90
2018-11-03T12:37:40.358Z,98.90
2018-11-03T12:40:10.692Z,98.80
2018-11-03T12:42:38.897Z,98.90
2018-11-03T12:45:08.694Z,99.10
2018-11-03T12:47:36.933Z,99.10
2018-11-03T12:50:06.459Z,99.10
2018-11-03T12:52:34.734Z,99.00
2018-11-03T12:55:03.014Z,99.00
2018-11-03T12:57:31.188Z,99.00
2018-11-03T12:59:59.388Z,99.40
2018-11-03T13:02:27.623Z,99.60
2018-11-03T13:04:55.974Z,99.70
2018-11-03T13:07:24.213Z,99.60
2018-11-03T13:09:52.442Z,99.40
2018-11-03T13:12:20.710Z,99.40
2018-11-03T13:14:48.821Z,99.50
2018-11-03T13:17:17.105Z,99.80
2018-11-03T13:19:45.272Z,99.90
2018-11-03T13:22:13.399Z,99.90
2018-11-03T13:24:41.599Z,99.90
2018-11-03T13:27:09.772Z,99.90
2018-11-03T13:29:37.972Z,99.90
2018-11-03T13:32:06.217Z,99.90
2018-11-03T13:34:34.701Z,99.90
2018-11-03T13:37:03.065Z,99.90
2018-11-03T13:39:31.196Z,99.90
2018-11-03T13:41:59.485Z,99.90
2018-11-03T13:44:28.249Z,99.90
2018-11-03T13:46:56.369Z,99.90
2018-11-03T13:49:24.633Z,99.90
2018-11-03T13:51:52.850Z,99.90
2018-11-03T13:54:21.024Z,99.90
2018-11-03T13:56:49.222Z,99.90
2018-11-03T13:59:17.380Z,99.90
2018-11-03T14:01:45.541Z,99.90
2018-11-03T14:04:14.565Z,99.90
2018-11-03T14:06:43.123Z,99.90
2018-11-03T14:09:11.700Z,99.90
2018-11-03T14:11:39.912Z,99.90
2018-11-03T14:14:08.117Z,99.90
2018-11-03T14:16:36.340Z,99.90
2018-11-03T14:19:04.822Z,99.90
2018-11-03T14:21:33.025Z,99.90
2018-11-03T14:24:01.197Z,99.90
2018-11-03T14:26:29.383Z,99.90
2018-11-03T14:28:58.216Z,99.90
2018-11-03T14:31:26.339Z,99.90
2018-11-03T14:33:54.556Z,99.90
2018-11-03T14:36:23.669Z,99.90
2018-11-03T14:38:51.808Z,99.90
2018-11-03T14:41:20.007Z,99.90
2018-11-03T14:43:48.155Z,99.90
2018-11-03T14:46:16.296Z,99.90
2018-11-03T14:48:44.623Z,99.90
2018-11-03T14:51:12.755Z,99.90
2018-11-03T14:53:40.917Z,99.90
2018-11-03T14:56:09.207Z,99.90
2018-11-03T14:58:37.414Z,99.90
2018-11-03T15:01:05.558Z,99.90
2018-11-03T15:03:33.945Z,99.90
2018-11-03T15:06:02.168Z,99.90
2018-11-03T15:08:30.329Z,99.90
2018-11-03T15:10:58.589Z,99.90
2018-11-03T15:13:26.807Z,99.90
2018-11-03T15:15:54.985Z,99.90
2018-11-03T15:18:23.158Z,99.90
2018-11-03T15:20:51.277Z,99.90
2018-11-03T15:23:19.518Z,99.90
2018-11-03T15:25:47.924Z,99.90
2018-11-03T15:28:16.156Z,99.90
2018-11-03T15:30:44.398Z,99.90
2018-11-03T15:33:12.674Z,99.90
2018-11-03T15:35:40.844Z,99.90
2018-11-03T15:38:09.068Z,99.90
2018-11-03T15:40:37.261Z,99.90
2018-11-03T15:43:05.526Z,99.90
2018-11-03T15:45:33.998Z,99.90
2018-11-03T15:48:02.365Z,99.90
2018-11-03T15:50:30.516Z,99.90
2018-11-03T15:52:58.718Z,99.90
2018-11-03T15:55:27.033Z,99.90
2018-11-03T15:57:55.437Z,99.90
2018-11-03T16:00:24.307Z,99.90
2018-11-03T16:02:52.483Z,99.90
2018-11-03T16:05:20.704Z,99.90
2018-11-03T16:07:48.972Z,99.90
2018-11-03T16:10:17.192Z,99.90
2018-11-03T16:12:45.522Z,99.90
2018-11-03T16:15:13.966Z,99.90
2018-11-03T16:17:43.015Z,99.90
2018-11-03T16:20:12.223Z,99.90
2018-11-03T16:22:40.687Z,99.90
2018-11-03T16:25:09.308Z,99.90
2018-11-03T16:27:37.881Z,99.90
2018-11-03T16:30:08.541Z,99.90
2018-11-03T16:32:36.879Z,99.90
2018-11-03T16:35:05.398Z,99.90
2018-11-03T16:37:33.600Z,99.90
2018-11-03T16:40:01.753Z,99.90
2018-11-03T16:42:29.924Z,99.90
2018-11-03T16:44:58.109Z,99.90
2018-11-03T16:47:26.360Z,99.90
2018-11-03T16:49:54.742Z,99.90
2018-11-03T16:52:22.998Z,99.90
2018-11-03T16:54:51.238Z,99.90
2018-11-03T16:57:19.381Z,99.90
2018-11-03T16:59:47.567Z,99.90
2018-11-03T17:02:15.817Z,99.90
2018-11-03T17:04:44.025Z,99.90
2018-11-03T17:07:12.216Z,99.90
2018-11-03T17:09:40.361Z,99.90
2018-11-03T17:12:08.523Z,99.90
2018-11-03T17:14:36.713Z,99.90
2018-11-03T17:17:04.937Z,99.90
2018-11-03T17:19:33.090Z,99.90
2018-11-03T17:22:01.291Z,99.90
2018-11-03T17:24:29.510Z,99.90
2018-11-03T17:26:57.816Z,99.90
2018-11-03T17:29:26.044Z,99.90
2018-11-03T17:31:54.619Z,99.90
2018-11-03T17:34:23.014Z,99.90
2018-11-03T17:36:51.294Z,99.90
2018-11-03T17:39:19.470Z,99.90
2018-11-03T17:41:47.618Z,99.90
2018-11-03T17:44:16.695Z,99.90
2018-11-03T17:46:44.858Z,99.90
2018-11-03T17:49:13.307Z,99.90
2018-11-03T17:51:41.565Z,99.90
2018-11-03T17:54:09.745Z,99.90
2018-11-03T17:56:37.893Z,99.90
2018-11-03T17:59:06.343Z,99.90
2018-11-03T18:01:35.422Z,99.90
2018-11-03T18:04:03.774Z,99.90
2018-11-03T18:06:31.945Z,99.90
2018-11-03T18:09:00.697Z,99.90
2018-11-03T18:11:28.860Z,99.90
2018-11-03T18:13:57.101Z,99.90
2018-11-03T18:16:25.260Z,99.90
2018-11-03T18:18:53.630Z,99.90
2018-11-03T18:21:21.877Z,99.90
2018-11-03T18:23:50.025Z,99.90
2018-11-03T18:26:18.270Z,99.90
2018-11-03T18:28:46.437Z,99.90
2018-11-03T18:31:14.589Z,99.90
2018-11-03T18:33:42.791Z,99.90
2018-11-03T18:36:11.167Z,99.90
2018-11-03T18:38:39.449Z,99.90
2018-11-03T18:41:07.594Z,99.90
2018-11-03T18:43:36.001Z,99.90
2018-11-03T18:46:04.226Z,99.90
2018-11-03T18:48:32.384Z,99.90
2018-11-03T18:51:00.570Z,99.90
2018-11-03T18:53:28.743Z,99.90
2018-11-03T18:55:56.886Z,99.90
2018-11-03T18:58:25.059Z,99.90
2018-11-03T19:00:53.252Z,99.90
2018-11-03T19:03:21.445Z,99.90
2018-11-03T19:05:49.856Z,99.90
2018-11-03T19:08:17.988Z,99.90
2018-11-03T19:10:46.132Z,99.90
2018-11-03T19:13:14.433Z,99.90
2018-11-03T19:15:42.929Z,99.90
2018-11-03T19:18:11.151Z,99.90
2018-11-03T19:20:39.338Z,99.90
2018-11-03T19:23:07.511Z,99.90
2018-11-03T19:25:35.654Z,99.90
2018-11-03T19:28:04.102Z,99.90
2018-11-03T19:30:32.690Z,99.90
2018-11-03T19:33:01.385Z,99.90
2018-11-03T19:35:29.599Z,99.90
2018-11-03T19:37:57.745Z,99.90
2018-11-03T19:40:25.986Z,99.90
2018-11-03T19:42:54.128Z,99.90
2018-11-03T19:45:22.355Z,99.90
2018-11-03T19:47:50.534Z,99.90
2018-11-03T19:50:18.912Z,99.90
2018-11-03T19:52:47.049Z,99.90
2018-11-03T19:55:15.223Z,99.90
2018-11-03T19:57:43.437Z,99.90
2018-11-03T20:00:13.645Z,99.90
2018-11-03T20:02:41.849Z,99.90
2018-11-03T20:05:10.843Z,99.90
2018-11-03T20:07:39.089Z,99.90
2018-11-03T20:10:07.324Z,99.90
2018-11-03T20:12:35.442Z,99.90
2018-11-03T20:15:03.769Z,99.90
2018-11-03T20:17:31.919Z,99.90
2018-11-03T20:20:00.084Z,99.90
2018-11-03T20:22:28.240Z,99.90
2018-11-03T20:24:56.480Z,99.90
2018-11-03T20:27:24.658Z,99.90
2018-11-03T20:29:52.817Z,99.90
2018-11-03T20:32:20.991Z,99.90
2018-11-03T20:34:49.205Z,99.90
2018-11-03T20:37:17.353Z,99.90
2018-11-03T20:39:45.625Z,99.90
2018-11-03T20:42:13.790Z,99.90
2018-11-03T20:44:41.986Z,99.90
2018-11-03T20:47:10.157Z,99.90
2018-11-03T20:49:38.309Z,99.90
2018-11-03T20:52:06.727Z,99.90
2018-11-03T20:54:35.025Z,99.90
2018-11-03T20:59:37.825Z,99.90
2018-11-03T21:02:06.077Z,99.90
2018-11-03T21:04:34.183Z,99.90
2018-11-03T21:07:02.332Z,99.90
2018-11-03T21:09:30.502Z,99.90
2018-11-03T21:11:58.649Z,99.90
2018-11-03T21:14:26.930Z,99.90
2018-11-03T21:16:55.176Z,99.90
2018-11-03T21:19:23.313Z,99.90
2018-11-03T21:21:51.436Z,99.90
2018-11-03T21:24:19.672Z,99.90
2018-11-03T21:26:47.749Z,99.90
2018-11-03T21:29:15.876Z,99.90
2018-11-03T21:31:44.072Z,99.90
2018-11-03T21:34:12.289Z,99.90
2018-11-03T21:36:40.434Z,99.90
2018-11-03T21:39:09.709Z,99.90
2018-11-03T21:41:37.854Z,99.90
2018-11-03T21:44:06.015Z,99.90
2018-11-03T21:46:34.221Z,99.90
2018-11-03T21:49:02.331Z,99.90
2018-11-03T21:51:30.654Z,99.90
2018-11-03T21:53:58.803Z,99.90
2018-11-03T21:56:26.941Z,99.90
2018-11-03T21:58:55.064Z,99.90
